sensor_id;sensor_type;location;lat;lon;timestamp;pressure;altitude;pressure_sealevel;temperature;humidity
38558;BME280;24333;42.626;23.308;2022-08-21T01:10:28;91752.00;;;17.04;100.00
38558;BME280;24333;42.626;23.308;2022-08-21T01:12:57;91745.47;;;16.94;100.00
38558;BME280;24333;42.626;23.308;2022-08-21T01:15:29;91756.19;;;17.09;100.00
38558;BME280;24333;42.626;23.308;2022-08-21T02:47:28;91777.44;;;16.07;100.00
38558;BME280;24333;42.626;23.308;2022-08-21T02:49:54;91768.06;;;16.04;100.00
38558;BME280;24333;42.626;23.308;2022-08-21T02:52:20;91784.25;;;16.23;100.00
38558;BME280;24333;42.626;23.308;2022-08-21T02:54:47;91756.16;;;16.11;100.00
38558;BME280;24333;42.626;23.308;2022-08-21T02:57:37;91791.16;;;16.31;100.00
38558;BME280;24333;42.626;23.308;2022-08-21T03:00:10;91780.28;;;16.24;100.00
38558;BME280;24333;42.626;23.308;2022-08-21T03:02:37;91782.56;;;16.29;100.00
38558;BME280;24333;42.626;23.308;2022-08-21T03:05:07;91774.31;;;16.29;100.00
38558;BME280;24333;42.626;23.308;2022-08-21T03:11:31;91792.56;;;16.39;100.00
38558;BME280;24333;42.626;23.308;2022-08-21T03:30:26;91773.31;;;16.39;100.00
38558;BME280;24333;42.626;23.308;2022-08-21T03:32:54;91779.97;;;16.42;100.00
38558;BME280;24333;42.626;23.308;2022-08-21T03:35:40;91745.66;;;16.26;100.00
38558;BME280;24333;42.626;23.308;2022-08-21T04:47:29;91793.16;;;16.51;100.00
38558;BME280;24333;42.626;23.308;2022-08-21T04:52:36;91771.41;;;16.36;100.00
38558;BME280;24333;42.626;23.308;2022-08-21T04:55:07;91789.22;;;16.52;100.00
38558;BME280;24333;42.626;23.308;2022-08-21T05:41:21;91781.72;;;17.46;100.00
38558;BME280;24333;42.626;23.308;2022-08-21T05:44:35;91772.09;;;17.38;100.00
38558;BME280;24333;42.626;23.308;2022-08-21T05:52:21;91774.88;;;17.54;100.00
38558;BME280;24333;42.626;23.308;2022-08-21T05:54:50;91767.47;;;17.51;100.00
38558;BME280;24333;42.626;23.308;2022-08-21T05:57:16;91772.81;;;17.58;100.00
38558;BME280;24333;42.626;23.308;2022-08-21T05:59:42;91782.59;;;17.76;100.00
38558;BME280;24333;42.626;23.308;2022-08-21T06:07:11;91773.06;;;17.81;100.00
38558;BME280;24333;42.626;23.308;2022-08-21T06:09:44;91764.00;;;17.80;100.00
38558;BME280;24333;42.626;23.308;2022-08-21T06:12:32;91778.66;;;17.94;100.00
38558;BME280;24333;42.626;23.308;2022-08-21T06:15:14;91763.31;;;17.92;100.00
38558;BME280;24333;42.626;23.308;2022-08-21T06:17:43;91762.88;;;17.94;100.00
38558;BME280;24333;42.626;23.308;2022-08-21T06:20:13;91782.81;;;18.02;100.00
38558;BME280;24333;42.626;23.308;2022-08-21T06:22:42;91780.81;;;17.86;100.00
38558;BME280;24333;42.626;23.308;2022-08-21T06:25:09;91760.75;;;17.69;100.00
38558;BME280;24333;42.626;23.308;2022-08-21T06:27:43;91770.19;;;17.84;100.00
38558;BME280;24333;42.626;23.308;2022-08-21T06:30:13;91765.66;;;17.77;100.00
38558;BME280;24333;42.626;23.308;2022-08-21T18:33:22;91680.16;;;18.53;100.00
38558;BME280;24333;42.626;23.308;2022-08-21T18:49:29;91664.47;;;18.50;100.00
38558;BME280;24333;42.626;23.308;2022-08-21T19:31:38;91674.50;;;18.14;100.00
38558;BME280;24333;42.626;23.308;2022-08-21T19:34:19;91686.59;;;18.33;100.00
38558;BME280;24333;42.626;23.308;2022-08-21T19:36:55;91685.00;;;18.19;100.00
38558;BME280;24333;42.626;23.308;2022-08-21T19:39:59;91682.16;;;18.23;100.00
38558;BME280;24333;42.626;23.308;2022-08-21T19:42:35;91697.22;;;18.35;100.00
38558;BME280;24333;42.626;23.308;2022-08-21T19:45:45;91722.50;;;18.46;100.00
38558;BME280;24333;42.626;23.308;2022-08-21T19:48:15;91698.75;;;18.36;100.00
38558;BME280;24333;42.626;23.308;2022-08-21T20:03:41;91714.63;;;18.74;100.00
38558;BME280;24333;42.626;23.308;2022-08-21T20:06:07;91725.13;;;18.79;100.00
38558;BME280;24333;42.626;23.308;2022-08-21T20:08:34;91715.63;;;18.81;100.00
38558;BME280;24333;42.626;23.308;2022-08-21T20:11:00;91715.31;;;18.78;100.00
38558;BME280;24333;42.626;23.308;2022-08-21T20:13:27;91718.63;;;18.86;100.00
38558;BME280;24333;42.626;23.308;2022-08-21T20:15:58;91733.72;;;18.98;100.00
38558;BME280;24333;42.626;23.308;2022-08-21T20:18:59;91705.72;;;18.83;100.00
38558;BME280;24333;42.626;23.308;2022-08-21T20:21:28;91730.69;;;18.92;100.00
38558;BME280;24333;42.626;23.308;2022-08-21T20:24:10;91694.09;;;18.75;100.00
38558;BME280;24333;42.626;23.308;2022-08-21T20:26:44;91700.84;;;18.74;100.00
38558;BME280;24333;42.626;23.308;2022-08-21T20:29:12;91719.72;;;18.89;100.00
38558;BME280;24333;42.626;23.308;2022-08-21T20:31:38;91703.91;;;18.76;100.00
38558;BME280;24333;42.626;23.308;2022-08-21T20:34:04;91694.19;;;18.72;100.00
38558;BME280;24333;42.626;23.308;2022-08-21T20:36:30;91700.03;;;18.61;100.00
38558;BME280;24333;42.626;23.308;2022-08-21T21:45:49;91696.63;;;17.81;100.00
38558;BME280;24333;42.626;23.308;2022-08-21T21:54:32;91714.56;;;17.89;100.00
38558;BME280;24333;42.626;23.308;2022-08-21T21:57:35;91725.25;;;17.87;100.00
38558;BME280;24333;42.626;23.308;2022-08-21T22:09:01;91714.94;;;17.58;100.00
38558;BME280;24333;42.626;23.308;2022-08-21T22:16:52;91721.81;;;17.50;100.00
38558;BME280;24333;42.626;23.308;2022-08-21T22:22:13;91712.06;;;17.29;100.00
38558;BME280;24333;42.626;23.308;2022-08-21T23:27:18;91715.25;;;16.74;100.00
